Nearby METAR Reports

 

KIND - Indianapolis, Indiana, USA
Distance from station: SW 6mi, 9km
Updated: Apr 07 2020 7:54pm
Few Clouds
Few Clouds
 Wind from SSW
Wind: SSW 20 mph , 31 km/h, Gust: 26 mph , 43 km/h
Temperature: 73°F , 23°C
Dew Point: 57°F , 14°C
Humidity: 57%
Barometer: 29.69 inHg , 1005.4 hPa
Clouds: Few Clouds
Visibility: 10 miles , 16 km
Cloud details: Few Clouds 5500 ft
Few Clouds 25000 ft
2020/04/07 23:54 KIND 072354Z 21017G23KT 10SM FEW055 FEW250 23/14 A2969 RMK AO2 SLP050 T02280144 10261 20228 56008
KEYE - Indianapolis, Indiana, USA
Distance from station: NW 5mi, 8km
Updated: Apr 07 2020 7:53pm
Clear
Clear
 Wind from SSW
Wind: SSW 14 mph , 22 km/h, Gust: 21 mph , 33 km/h
Temperature: 75°F , 24°C
Dew Point: 57°F , 14°C
Humidity: 54%
Barometer: 29.68 inHg , 1005.1 hPa
Clouds: Clear
Visibility: 10 miles , 16 km
2020/04/07 23:53 KEYE 072353Z AUTO 21012G18KT 10SM CLR 24/14 A2968 RMK AO2 SLP046 T02390139 10267 20233 56010
 
KTYQ - Indianapolis Exc, Indiana, USA
Distance from station: N 17mi, 28km
Updated: Apr 07 2020 7:55pm
Clear
Clear
 Wind from SSW
Wind: SSW 15 mph , 24 km/h, Gust: 22 mph , 35 km/h
Temperature: 72°F , 22°C
Dew Point: 59°F , 15°C
Humidity: 65%
Barometer: 29.69 inHg , 1005.4 hPa
Clouds: Clear
Visibility: 10 miles , 16 km
2020/04/07 23:55 KTYQ 072355Z AUTO 21013G19KT 10SM CLR 22/15 A2969 RMK AO2 LTG DSNT NW T02220152 10252 20222
KGEZ - Shelbyville, Indiana, USA
Distance from station: ESE 27mi, 43km
Updated: Apr 07 2020 7:53pm
Few Clouds
Few Clouds
 Wind from SW
Wind: SW 15 mph , 24 km/h
Temperature: 75°F , 24°C
Dew Point: 55°F , 13°C
Humidity: 50%
Barometer: 29.70 inHg , 1005.8 hPa
Clouds: Few Clouds
Visibility: 10 miles , 16 km
Cloud details: Few Clouds 5500 ft
2020/04/07 23:53 KGEZ 072353Z AUTO 22013KT 10SM FEW055 24/13 A2970 RMK AO2 SLP051 T02440133 10272 20244 56008
 
KAID - Anderson Municip, Indiana, USA
Distance from station: NE 40mi, 64km
Updated: Apr 07 2020 8:15pm
Clear
Clear
 Wind from SW
Wind: SW 9 mph , 15 km/h
Temperature: 73°F , 23°C
Dew Point: 55°F , 13°C
Humidity: 53%
Barometer: 29.68 inHg , 1005.1 hPa
Clouds: Clear
Visibility: 10 miles , 16 km
2020/04/08 00:15 KAID 080015Z AUTO 23008KT 10SM CLR 23/13 A2968 RMK AO2 T02320132
KBAK - Columbus/Balkala, Indiana, USA
Distance from station: SSE 40mi, 64km
Updated: Apr 07 2020 7:45pm
Partly Cloudy
Partly Cloudy
 Wind from SW
Wind: SW 16 mph , 26 km/h, Gust: 21 mph , 33 km/h
Temperature: 73°F , 23°C
Dew Point: 55°F , 13°C
Humidity: 53%
Barometer: 29.72 inHg , 1006.4 hPa
Clouds: Partly Cloudy
Visibility: 10 miles , 16 km
Cloud details: Partly Cloudy 5500 ft
2020/04/07 23:45 KBAK 072345Z 23014G18KT 10SM SCT055 23/13 A2972
 
KBMG - Bloomington, Indiana, USA
Distance from station: SSW 48mi, 78km
Updated: Apr 07 2020 7:53pm
Clear
Clear
 Wind from SW
Wind: SW 14 mph , 22 km/h
Temperature: 73°F , 23°C
Dew Point: 59°F , 15°C
Humidity: 61%
Barometer: 29.73 inHg , 1006.8 hPa
Clouds: Clear
Visibility: 10 miles , 16 km
2020/04/07 23:53 KBMG 072353Z 22012KT 10SM CLR 23/15 A2973 RMK AO2 SLP061 T02330150 10261 20233 56009
KOKK - Kokomo, Indiana, USA
Distance from station: N 53mi, 85km
Updated: Apr 07 2020 7:56pm
Clear
Clear
 Wind from SW
Wind: SW 15 mph , 24 km/h, Gust: 23 mph , 37 km/h
Temperature: 73°F , 23°C
Dew Point: 57°F , 14°C
Humidity: 57%
Barometer: 29.66 inHg , 1004.4 hPa
Clouds: Clear
Visibility: 10 miles , 16 km
2020/04/07 23:56 KOKK 072356Z AUTO 22013G20KT 10SM CLR 23/14 A2966 RMK AO2 SLP040 T02330144 10256 20228 56015